Jenksville, New York
Current Conditions -  °F | °C
As of 3:53 PM on Thursday 20 Nov 2014 (Local Time) from KBGM Reporting Station
Overcast Overcast  
Wind Chill: 17°   Ceiling: 6000
Heat Index: 29°   Visibility: 10mi
Dew Point:   Wind: 16mph
Humidity: 43%   Direction: 270°W
Pressure: 29.79"   Gusts: 23mph
Location:  42.3124°N, 76.194°W
Report Text: KBGM 202053Z AUTO 27014G20KT 10SM OVC060 M02/M13 A2979 RMK AO2 SLP106 T10171128 53006
Loading
Personal Weather Stations






























Interactive Weather Map New forecast layout! Learn more

10-Day Weather Forecast

Advertisements
Track Severe Weather on mobile